Time;durP1;ratioP1;P1;durP2;ratioP2;P2;SDS_P1;SDS_P2;PMS_P1;PMS_P2;Temp;Humidity;BMP_temperature;BMP_pressure;BME280_temperature;BME280_humidity;BME280_pressure;Samples;Min_cycle;Max_cycle;Signal;HPM_P1;HPM_P2
2022/04/29 00:00:33;;;;;;;10.67;9.57;;;7.30;99.90;;;;;;5092334;28;20226;-78
2022/04/29 00:03:00;;;;;;;11.37;10.43;;;7.20;99.90;;;;;;5089133;28;20202;-78
2022/04/29 00:05:27;;;;;;;11.03;9.97;;;7.10;99.90;;;;;;5088285;28;20228;-78
2022/04/29 00:07:55;;;;;;;10.33;9.43;;;7.10;99.90;;;;;;5089128;28;20286;-78
2022/04/29 00:10:22;;;;;;;10.70;9.80;;;7.00;99.90;;;;;;5085520;28;20695;-78
2022/04/29 00:12:50;;;;;;;11.13;10.10;;;7.00;99.90;;;;;;5088893;28;20301;-78
2022/04/29 00:15:19;;;;;;;11.10;10.07;;;7.00;99.90;;;;;;5087161;28;20285;-78
2022/04/29 00:17:46;;;;;;;11.33;10.33;;;7.00;99.90;;;;;;5088458;28;20252;-78
2022/04/29 00:20:13;;;;;;;11.53;10.40;;;6.90;99.90;;;;;;5087927;28;20310;-79
2022/04/29 00:22:41;;;;;;;11.73;10.57;;;6.90;99.90;;;;;;5088422;28;20658;-77
2022/04/29 00:25:09;;;;;;;11.00;10.00;;;6.90;99.90;;;;;;5088581;28;20282;-78
2022/04/29 00:27:38;;;;;;;10.33;9.43;;;6.90;99.90;;;;;;5082707;28;20229;-78
2022/04/29 00:30:08;;;;;;;11.47;10.40;;;6.80;99.90;;;;;;5087763;28;20219;-78
2022/04/29 00:32:35;;;;;;;11.03;10.03;;;6.80;99.90;;;;;;5086772;28;20198;-78
2022/04/29 00:35:03;;;;;;;11.00;10.07;;;6.70;99.90;;;;;;5088547;28;20622;-78
2022/04/29 00:37:31;;;;;;;10.40;9.43;;;6.70;99.90;;;;;;5087927;28;20199;-77
2022/04/29 00:39:58;;;;;;;10.83;9.93;;;6.70;99.90;;;;;;5088409;28;20221;-78
2022/04/29 00:42:25;;;;;;;11.13;10.13;;;6.60;99.90;;;;;;5085989;28;20207;-78
2022/04/29 00:44:52;;;;;;;10.73;9.80;;;6.60;99.90;;;;;;5088138;28;20333;-78
2022/04/29 00:47:21;;;;;;;10.67;9.70;;;6.60;99.90;;;;;;5087042;28;20290;-78
2022/04/29 00:49:49;;;;;;;12.47;11.17;;;6.50;99.90;;;;;;5088522;28;20230;-77
2022/04/29 00:52:19;;;;;;;11.20;10.20;;;6.50;99.90;;;;;;5087302;28;20639;-78
2022/04/29 00:54:55;;;;;;;12.07;10.97;;;6.50;99.90;;;;;;5087895;28;20225;-78
2022/04/29 00:57:29;;;;;;;11.90;10.90;;;6.50;99.90;;;;;;5086507;28;20224;-78
2022/04/29 01:00:02;;;;;;;12.63;11.43;;;6.60;99.90;;;;;;5081202;28;20718;-77
2022/04/29 01:02:32;;;;;;;12.70;11.50;;;6.50;99.90;;;;;;5087527;28;20202;-77
2022/04/29 01:05:03;;;;;;;12.37;11.27;;;6.40;99.90;;;;;;5085369;28;20304;-78
2022/04/29 01:07:31;;;;;;;12.00;10.93;;;6.40;99.90;;;;;;5087130;28;20194;-78
2022/04/29 01:09:58;;;;;;;11.53;10.50;;;6.40;99.90;;;;;;5103187;28;20329;-78
2022/04/29 01:12:26;;;;;;;12.47;11.47;;;6.40;99.90;;;;;;5087316;28;20256;-78
2022/04/29 01:14:54;;;;;;;13.40;12.10;;;6.40;99.90;;;;;;5084146;28;20201;-78
2022/04/29 01:17:21;;;;;;;12.43;11.13;;;6.30;99.90;;;;;;5080970;28;20663;-78
2022/04/29 01:19:50;;;;;;;12.73;10.80;;;6.30;99.90;;;;;;5084182;28;20247;-78
2022/04/29 01:22:18;;;;;;;12.03;10.93;;;6.30;99.90;;;;;;5084831;28;20689;-78
2022/04/29 01:24:48;;;;;;;12.00;10.90;;;6.20;99.90;;;;;;5077356;28;20214;-78
2022/04/29 01:27:16;;;;;;;12.27;11.17;;;6.20;99.90;;;;;;5084206;28;20189;-78
2022/04/29 01:29:46;;;;;;;12.40;11.30;;;6.20;99.90;;;;;;5083926;28;20214;-78
2022/04/29 01:32:13;;;;;;;12.37;11.27;;;6.10;99.90;;;;;;5087663;28;20211;-78
2022/04/29 01:34:43;;;;;;;11.83;10.73;;;6.20;99.90;;;;;;5083539;28;20262;-78
2022/04/29 01:37:11;;;;;;;12.53;11.43;;;6.20;99.90;;;;;;5081782;28;20230;-77
2022/04/29 01:39:39;;;;;;;12.57;11.47;;;6.10;99.90;;;;;;5085506;28;20654;-77
2022/04/29 01:42:07;;;;;;;13.23;11.97;;;6.10;99.90;;;;;;5083802;28;20221;-78
2022/04/29 01:44:35;;;;;;;12.43;11.40;;;6.10;99.90;;;;;;5084885;28;20218;-78
2022/04/29 01:47:02;;;;;;;13.10;11.90;;;6.10;99.90;;;;;;5083589;28;20438;-78
2022/04/29 01:49:51;;;;;;;12.97;11.77;;;6.10;99.90;;;;;;5119973;22;20229;-78
2022/04/29 01:52:18;;;;;;;12.77;11.57;;;6.00;99.90;;;;;;5081334;28;20236;-78
2022/04/29 01:54:47;;;;;;;12.93;11.83;;;6.00;99.90;;;;;;5086513;28;20201;-77
2022/04/29 01:57:14;;;;;;;12.87;11.67;;;6.00;99.90;;;;;;5082026;28;20190;-78
2022/04/29 01:59:41;;;;;;;13.03;11.87;;;5.80;99.90;;;;;;5085609;28;20200;-78
2022/04/29 02:02:17;;;;;;;14.13;12.77;;;5.90;99.90;;;;;;5063157;28;20236;-78
2022/04/29 02:04:44;;;;;;;13.90;12.60;;;5.70;99.90;;;;;;5063268;28;20208;-77
2022/04/29 02:07:12;;;;;;;13.33;11.80;;;5.70;99.90;;;;;;5081125;28;20233;-78
2022/04/29 02:09:42;;;;;;;13.07;11.97;;;5.70;99.90;;;;;;5076837;28;20209;-78
2022/04/29 02:12:11;;;;;;;12.80;11.77;;;5.70;99.90;;;;;;5071637;28;20219;-78
2022/04/29 02:15:02;;;;;;;13.70;12.60;;;5.70;99.90;;;;;;5047026;28;20253;-77
2022/04/29 02:17:36;;;;;;;13.77;12.60;;;5.70;99.90;;;;;;5071294;28;20201;-78
2022/04/29 02:20:04;;;;;;;12.63;11.60;;;5.70;99.90;;;;;;5079986;28;20187;-77
2022/04/29 02:22:32;;;;;;;13.03;11.93;;;5.70;99.90;;;;;;5081949;28;20225;-78
2022/04/29 02:24:59;;;;;;;13.70;12.60;;;5.70;99.90;;;;;;5076407;28;20258;-78
2022/04/29 02:27:27;;;;;;;12.63;11.43;;;5.60;99.90;;;;;;5080603;28;20202;-78
2022/04/29 02:29:54;;;;;;;13.77;12.57;;;5.60;99.90;;;;;;5085007;28;20193;-78
2022/04/29 02:32:22;;;;;;;11.80;10.80;;;5.50;99.90;;;;;;5059196;28;20210;-79
2022/04/29 02:34:48;;;;;;;12.10;11.10;;;5.50;99.90;;;;;;5077978;28;20195;-77
2022/04/29 02:37:16;;;;;;;13.00;11.87;;;5.50;99.90;;;;;;5079162;28;20214;-78
2022/04/29 02:39:46;;;;;;;13.70;12.50;;;5.50;99.90;;;;;;5078702;28;20228;-79
2022/04/29 02:42:13;;;;;;;13.63;12.33;;;5.40;99.90;;;;;;5086877;28;20202;-78
2022/04/29 02:44:42;;;;;;;13.60;12.37;;;5.40;99.90;;;;;;5071714;28;20222;-81
2022/04/29 02:47:11;;;;;;;13.57;12.37;;;5.30;99.90;;;;;;5061541;28;20556;-79
2022/04/29 02:49:39;;;;;;;13.10;11.90;;;5.30;99.90;;;;;;5057644;28;20224;-79
2022/04/29 02:52:07;;;;;;;13.87;12.67;;;5.20;99.90;;;;;;5085669;28;20275;-77
2022/04/29 02:54:34;;;;;;;13.37;12.17;;;5.30;99.90;;;;;;5068177;28;20233;-80
2022/04/29 02:57:03;;;;;;;14.90;13.67;;;5.30;99.90;;;;;;5054489;28;20241;-81
2022/04/29 02:59:49;;;;;;;13.53;12.23;;;5.30;99.90;;;;;;5068102;28;20198;-81
2022/04/29 03:02:17;;;;;;;14.10;12.90;;;5.30;99.90;;;;;;5072424;28;20240;-81
2022/04/29 03:04:44;;;;;;;15.53;14.17;;;5.20;99.90;;;;;;5073120;28;20222;-80
2022/04/29 03:07:11;;;;;;;15.37;13.87;;;5.20;99.90;;;;;;5072938;28;20198;-81
2022/04/29 03:09:48;;;;;;;14.40;13.13;;;5.10;99.90;;;;;;5070337;28;20198;-81
2022/04/29 03:12:15;;;;;;;17.03;15.43;;;5.10;99.90;;;;;;5066789;28;20218;-80
2022/04/29 03:14:44;;;;;;;15.37;14.17;;;5.10;99.90;;;;;;5053578;28;20198;-80
2022/04/29 03:19:55;;;;;;;14.83;13.63;;;5.10;99.90;;;;;;5062421;28;20247;-82
2022/04/29 03:22:22;;;;;;;15.20;13.90;;;5.20;99.90;;;;;;5078783;28;20293;-82
2022/04/29 03:24:49;;;;;;;15.77;14.47;;;5.20;99.90;;;;;;5058921;28;20217;-81
2022/04/29 03:27:16;;;;;;;15.10;13.87;;;5.20;99.90;;;;;;5073984;28;20201;-82
2022/04/29 03:29:43;;;;;;;15.60;14.30;;;5.20;99.90;;;;;;5077492;28;20671;-82
2022/04/29 03:32:10;;;;;;;14.43;13.23;;;5.20;99.90;;;;;;5060755;28;20226;-82
2022/04/29 03:34:59;;;;;;;14.73;13.43;;;5.10;99.90;;;;;;5073929;28;20209;-82
2022/04/29 03:37:26;;;;;;;15.80;14.33;;;5.10;99.90;;;;;;5080483;28;20654;-79
2022/04/29 03:39:54;;;;;;;14.97;13.47;;;5.10;99.90;;;;;;5075726;28;20290;-80
2022/04/29 03:42:21;;;;;;;15.43;14.03;;;5.10;99.90;;;;;;5079280;28;20240;-79
2022/04/29 03:44:48;;;;;;;14.77;13.47;;;5.00;99.90;;;;;;5081108;28;20616;-81
2022/04/29 03:47:17;;;;;;;15.67;14.17;;;5.00;99.90;;;;;;5081268;28;20203;-81
2022/04/29 03:50:11;;;;;;;16.27;14.80;;;5.00;99.90;;;;;;5063599;28;20323;-81
2022/04/29 03:52:52;;;;;;;17.30;15.47;;;5.00;99.90;;;;;;5074132;28;20207;-81
2022/04/29 03:55:20;;;;;;;14.80;13.27;;;5.00;99.90;;;;;;5082062;28;20560;-81
2022/04/29 03:57:47;;;;;;;15.27;13.87;;;5.00;99.90;;;;;;5081828;28;20286;-81
2022/04/29 04:00:16;;;;;;;15.80;14.40;;;5.00;99.90;;;;;;5083659;28;20218;-81
2022/04/29 04:02:46;;;;;;;15.10;13.77;;;5.00;99.90;;;;;;5062666;28;20198;-82
2022/04/29 04:05:14;;;;;;;14.67;13.47;;;5.00;99.90;;;;;;5068396;28;20218;-82
2022/04/29 04:07:42;;;;;;;14.77;13.30;;;5.00;99.90;;;;;;5085123;28;20233;-81
2022/04/29 04:10:28;;;;;;;14.73;13.23;;;5.00;99.90;;;;;;5070564;28;20227;-81
2022/04/29 04:12:55;;;;;;;14.63;13.33;;;5.00;99.90;;;;;;5083239;28;20198;-81
2022/04/29 04:15:52;;;;;;;14.30;13.00;;;5.10;99.90;;;;;;5082752;28;20197;-81
2022/04/29 04:18:19;;;;;;;15.37;13.77;;;5.10;99.90;;;;;;5076631;28;20204;-81
2022/04/29 04:20:48;;;;;;;15.70;14.20;;;5.10;99.90;;;;;;5065380;28;20228;-81
2022/04/29 04:23:16;;;;;;;16.07;14.43;;;5.10;99.90;;;;;;5082517;28;20285;-81
2022/04/29 04:25:43;;;;;;;15.93;14.43;;;5.20;99.90;;;;;;5078979;28;20595;-81
2022/04/29 04:28:14;;;;;;;15.13;13.60;;;5.20;99.90;;;;;;5079984;28;20201;-81
2022/04/29 04:30:51;;;;;;;15.97;14.47;;;5.30;99.90;;;;;;5079076;28;20221;-81
2022/04/29 04:33:23;;;;;;;15.80;14.43;;;5.40;99.90;;;;;;5082990;28;20213;-81
2022/04/29 04:35:53;;;;;;;16.43;14.17;;;5.40;99.90;;;;;;5083166;28;20194;-80
2022/04/29 04:38:20;;;;;;;15.30;13.90;;;5.50;99.90;;;;;;5078117;28;20191;-81
2022/04/29 04:40:51;;;;;;;15.17;13.67;;;5.60;99.90;;;;;;5082130;28;20320;-81
2022/04/29 04:43:20;;;;;;;17.13;15.10;;;5.70;99.90;;;;;;5084738;28;20381;-82
2022/04/29 04:45:52;;;;;;;17.00;15.40;;;5.80;99.90;;;;;;5081609;28;20316;-81
2022/04/29 04:48:37;;;;;;;16.73;15.03;;;5.80;99.90;;;;;;5089580;28;20205;-81
2022/04/29 04:51:24;;;;;;;16.60;15.10;;;6.00;99.90;;;;;;5084026;28;20240;-82
2022/04/29 04:53:58;;;;;;;16.70;15.30;;;6.00;99.90;;;;;;5060123;28;20203;-81
2022/04/29 04:56:26;;;;;;;16.73;15.13;;;6.10;99.90;;;;;;5080793;28;20618;-81
2022/04/29 04:58:53;;;;;;;15.30;14.03;;;6.20;99.90;;;;;;5084600;28;20204;-82
2022/04/29 05:01:21;;;;;;;15.53;14.00;;;6.40;99.90;;;;;;5075657;28;20265;-81
2022/04/29 05:04:06;;;;;;;14.60;13.33;;;6.50;99.90;;;;;;5080565;28;20194;-81
2022/04/29 05:06:50;;;;;;;13.43;12.13;;;6.90;99.90;;;;;;5075599;28;20205;-81
2022/04/29 05:09:17;;;;;;;12.17;11.07;;;7.30;99.90;;;;;;5082491;28;20217;-81
2022/04/29 05:11:44;;;;;;;12.40;11.20;;;7.80;99.90;;;;;;5077966;28;20655;-82
2022/04/29 05:14:23;;;;;;;11.77;10.13;;;8.20;99.90;;;;;;5079706;28;20587;-82
2022/04/29 05:16:50;;;;;;;11.23;10.20;;;8.90;99.90;;;;;;5078359;28;20209;-82
2022/04/29 05:19:36;;;;;;;12.30;11.07;;;9.40;99.90;;;;;;5068831;28;20209;-82
2022/04/29 05:22:05;;;;;;;12.43;11.30;;;9.60;99.90;;;;;;5085964;28;20855;-82
2022/04/29 05:24:33;;;;;;;12.60;11.50;;;10.00;99.90;;;;;;5079094;28;20587;-82
2022/04/29 05:27:20;;;;;;;11.93;10.70;;;10.30;99.90;;;;;;5080023;28;20225;-82
2022/04/29 05:30:08;;;;;;;9.60;8.60;;;10.70;99.90;;;;;;5089086;28;20256;-82
2022/04/29 05:32:54;;;;;;;9.33;8.43;;;10.90;99.90;;;;;;5075851;28;20201;-82
2022/04/29 05:35:40;;;;;;;9.00;8.10;;;11.20;99.90;;;;;;5075210;28;20211;-82
2022/04/29 05:42:14;;;;;;;8.33;7.53;;;11.40;99.90;;;;;;5082586;28;20571;-82
2022/04/29 05:43:59;;;;;;;8.33;6.80;;;11.60;99.90;;;;;;5079921;28;20192;-82
2022/04/29 05:46:26;;;;;;;7.90;7.13;;;11.60;99.90;;;;;;5082568;28;20275;-82
2022/04/29 05:48:53;;;;;;;8.90;7.37;;;11.50;99.90;;;;;;5066112;28;20205;-82
2022/04/29 05:51:20;;;;;;;8.23;7.43;;;11.40;99.90;;;;;;5077396;28;20235;-82
2022/04/29 05:53:49;;;;;;;8.70;7.80;;;11.30;99.90;;;;;;5072740;28;20196;-82
2022/04/29 05:56:16;;;;;;;8.67;7.87;;;11.10;99.90;;;;;;5084846;28;20255;-82
2022/04/29 05:58:44;;;;;;;8.60;7.80;;;11.00;99.90;;;;;;5064697;28;20196;-82
2022/04/29 06:01:40;;;;;;;10.50;9.40;;;10.90;99.90;;;;;;5081135;28;20354;-83
2022/04/29 06:04:07;;;;;;;9.87;7.60;;;10.90;99.90;;;;;;5078999;28;20207;-82
2022/04/29 06:06:37;;;;;;;8.97;8.10;;;10.90;99.90;;;;;;5062896;28;20650;-82
2022/04/29 06:09:05;;;;;;;8.40;7.60;;;11.00;99.90;;;;;;5082134;28;20209;-82
2022/04/29 06:11:33;;;;;;;8.77;7.97;;;11.20;99.90;;;;;;5071275;28;20255;-82
2022/04/29 06:14:01;;;;;;;9.37;8.47;;;11.40;99.90;;;;;;5072728;28;20558;-82
2022/04/29 06:17:03;;;;;;;9.23;8.20;;;11.50;99.90;;;;;;4996581;28;20207;-83
2022/04/29 06:19:49;;;;;;;9.03;8.13;;;11.60;99.90;;;;;;5069960;28;20301;-83
2022/04/29 06:22:42;;;;;;;8.83;7.97;;;11.80;99.90;;;;;;5073202;28;20198;-82
2022/04/29 06:25:10;;;;;;;9.93;7.70;;;12.10;99.90;;;;;;5079875;28;20241;-82
2022/04/29 06:27:39;;;;;;;9.70;8.67;;;12.30;99.90;;;;;;5063244;28;20779;-82
2022/04/29 06:30:08;;;;;;;9.30;8.40;;;12.40;99.90;;;;;;5080244;28;20209;-82
2022/04/29 06:32:54;;;;;;;8.87;7.97;;;12.50;99.90;;;;;;5077911;28;20202;-82
2022/04/29 06:35:23;;;;;;;9.23;8.20;;;12.80;99.90;;;;;;5067304;28;20198;-83
2022/04/29 06:37:52;;;;;;;8.50;7.70;;;13.00;99.90;;;;;;5080308;28;20217;-83
2022/04/29 06:44:33;;;;;;;8.83;7.93;;;12.90;99.90;;;;;;5046041;28;20235;-82
2022/04/29 06:47:20;;;;;;;9.10;8.30;;;13.10;99.90;;;;;;5080221;28;20718;-82
2022/04/29 06:50:10;;;;;;;8.53;7.67;;;13.10;99.90;;;;;;5056044;28;20711;-83
2022/04/29 06:52:56;;;;;;;9.43;7.87;;;13.10;99.90;;;;;;5080673;28;20209;-82
2022/04/29 06:55:27;;;;;;;8.20;7.40;;;13.00;99.90;;;;;;5082755;28;20514;-82
2022/04/29 06:57:55;;;;;;;8.97;8.07;;;13.10;99.90;;;;;;5079593;28;20206;-82
2022/04/29 07:00:23;;;;;;;8.13;7.40;;;13.20;99.90;;;;;;5067651;28;20224;-82
2022/04/29 07:02:52;;;;;;;9.47;8.57;;;13.30;99.90;;;;;;5072096;28;20663;-83
2022/04/29 07:05:20;;;;;;;9.87;8.37;;;13.60;99.90;;;;;;5081160;28;20222;-82
2022/04/29 07:07:49;;;;;;;9.07;8.17;;;13.80;99.90;;;;;;5073285;28;20194;-82
2022/04/29 07:10:36;;;;;;;8.47;7.67;;;14.10;99.90;;;;;;5041862;28;20259;-83
2022/04/29 07:13:33;;;;;;;9.43;8.43;;;14.20;99.90;;;;;;5014278;28;20205;-82
2022/04/29 07:16:02;;;;;;;8.97;7.97;;;14.40;99.90;;;;;;5075560;28;20196;-82
2022/04/29 07:18:51;;;;;;;9.73;8.83;;;14.60;99.90;;;;;;5072246;28;20204;-83
2022/04/29 07:21:19;;;;;;;10.77;9.77;;;14.50;99.90;;;;;;5072382;28;20271;-83
2022/04/29 07:23:47;;;;;;;9.80;8.80;;;14.80;99.90;;;;;;5086118;28;20201;-83
2022/04/29 07:26:14;;;;;;;10.20;9.10;;;15.20;99.90;;;;;;5073617;28;20308;-83
2022/04/29 07:28:41;;;;;;;8.50;7.70;;;15.50;99.90;;;;;;5076579;28;20303;-83
2022/04/29 07:31:10;;;;;;;8.70;7.47;;;15.30;99.90;;;;;;5082185;28;20218;-83
2022/04/29 07:33:57;;;;;;;10.60;9.60;;;15.50;99.90;;;;;;5077971;28;20216;-83
2022/04/29 07:42:11;;;;;;;10.10;9.10;;;16.40;99.90;;;;;;5066421;28;20210;-83
2022/04/29 07:44:38;;;;;;;9.83;8.93;;;16.70;99.90;;;;;;5065562;28;20202;-83
2022/04/29 07:47:11;;;;;;;9.97;9.17;;;17.20;99.90;;;;;;5086187;28;20194;-83
2022/04/29 07:49:44;;;;;;;8.53;7.63;;;17.60;99.90;;;;;;5081977;28;20247;-83
2022/04/29 07:52:17;;;;;;;11.17;9.07;;;17.60;99.90;;;;;;5121202;22;20724;-79
2022/04/29 07:54:44;;;;;;;10.03;9.10;;;17.60;99.90;;;;;;5106325;27;20233;-80
2022/04/29 07:57:11;;;;;;;9.13;8.23;;;17.50;99.90;;;;;;5102877;28;20215;-78
2022/04/29 07:59:38;;;;;;;11.90;10.77;;;17.90;99.90;;;;;;5103735;28;20655;-79
2022/04/29 08:02:18;;;;;;;9.93;9.10;;;17.60;99.90;;;;;;5112416;27;20223;-79
2022/04/29 08:04:46;;;;;;;10.03;8.70;;;18.00;99.90;;;;;;5118423;27;20202;-78
2022/04/29 08:07:13;;;;;;;11.83;10.20;;;18.60;99.90;;;;;;5102426;28;20589;-80
2022/04/29 08:09:40;;;;;;;9.83;6.60;;;18.60;99.90;;;;;;5113831;27;20200;-80
2022/04/29 08:12:13;;;;;;;8.00;7.30;;;18.70;99.90;;;;;;5109801;28;20231;-79
2022/04/29 08:14:58;;;;;;;10.87;10.03;;;18.80;99.90;;;;;;5127213;27;20206;-79
2022/04/29 08:17:29;;;;;;;11.23;10.33;;;18.70;99.90;;;;;;5122326;27;20200;-80
2022/04/29 08:19:58;;;;;;;9.63;8.73;;;18.70;99.90;;;;;;5113545;28;20201;-80
2022/04/29 08:22:33;;;;;;;11.20;10.10;;;18.90;99.90;;;;;;5113499;27;20253;-80
2022/04/29 08:25:00;;;;;;;10.47;9.57;;;19.00;99.90;;;;;;5112516;27;20656;-80
2022/04/29 08:27:28;;;;;;;9.57;7.83;;;19.30;99.90;;;;;;5109036;27;20213;-80
2022/04/29 08:29:57;;;;;;;7.40;6.70;;;19.30;99.90;;;;;;5105530;28;20205;-80
2022/04/29 08:32:24;;;;;;;6.77;6.17;;;19.60;99.90;;;;;;5107719;27;20221;-81
2022/04/29 08:34:54;;;;;;;10.03;9.13;;;19.30;99.90;;;;;;5109288;28;20201;-80
2022/04/29 08:37:22;;;;;;;10.73;9.93;;;19.10;99.90;;;;;;5112075;27;20213;-80
2022/04/29 08:39:49;;;;;;;11.90;10.90;;;19.10;99.90;;;;;;5114096;27;20204;-80
2022/04/29 08:42:19;;;;;;;10.93;10.13;;;18.50;99.90;;;;;;5112700;27;20223;-80
2022/04/29 08:44:50;;;;;;;11.20;10.10;;;18.40;99.90;;;;;;5111581;27;20196;-80
2022/04/29 08:47:37;;;;;;;11.40;10.40;;;18.20;99.90;;;;;;5123393;27;20210;-80
2022/04/29 08:50:11;;;;;;;10.67;9.67;;;18.10;99.90;;;;;;5106910;28;20201;-80
2022/04/29 08:52:39;;;;;;;9.73;8.93;;;18.30;99.90;;;;;;5105118;28;20693;-80
2022/04/29 09:00:39;;;;;;;10.07;9.17;;;18.40;99.90;;;;;;5090937;28;20239;-80
2022/04/29 09:03:11;;;;;;;9.83;8.83;;;18.50;99.90;;;;;;5111617;28;20629;-80
2022/04/29 09:05:39;;;;;;;9.30;8.60;;;18.50;99.90;;;;;;5098218;27;20193;-80
2022/04/29 09:08:07;;;;;;;9.73;8.93;;;18.60;99.90;;;;;;5115622;27;20201;-79
2022/04/29 09:10:36;;;;;;;9.07;8.27;;;18.50;99.90;;;;;;5112044;27;20230;-80
2022/04/29 09:13:14;;;;;;;10.67;9.77;;;18.90;99.90;;;;;;5107747;28;20198;-80
2022/04/29 09:15:51;;;;;;;10.40;9.60;;;19.30;99.90;;;;;;5091881;27;20313;-81
2022/04/29 09:18:31;;;;;;;9.90;9.10;;;19.60;99.90;;;;;;5110899;27;20198;-81
2022/04/29 09:20:59;;;;;;;9.57;8.67;;;19.90;99.90;;;;;;5111507;28;20211;-79
2022/04/29 09:23:28;;;;;;;8.80;8.10;;;20.10;99.90;;;;;;5112148;27;20190;-80
2022/04/29 09:26:21;;;;;;;8.97;8.17;;;20.60;99.90;;;;;;5122979;27;20681;-80
2022/04/29 09:29:12;;;;;;;8.83;8.13;;;20.90;98.60;;;;;;5117753;27;20680;-80
2022/04/29 09:31:53;;;;;;;9.30;8.40;;;21.30;99.60;;;;;;5100533;27;20226;-80
2022/04/29 09:34:53;;;;;;;9.17;7.40;;;21.40;94.90;;;;;;5069823;28;20281;-80
2022/04/29 09:37:22;;;;;;;7.73;7.03;;;21.40;92.70;;;;;;5112045;27;20311;-80
2022/04/29 09:39:52;;;;;;;8.10;7.47;;;21.20;93.90;;;;;;5111312;27;20200;-80
2022/04/29 09:42:19;;;;;;;9.20;8.30;;;21.60;92.70;;;;;;5107465;27;20587;-79
2022/04/29 09:44:47;;;;;;;6.50;6.00;;;21.80;90.40;;;;;;5105656;28;20228;-80
2022/04/29 09:47:15;;;;;;;5.27;4.00;;;21.90;91.30;;;;;;5108647;28;20293;-80
2022/04/29 09:49:53;;;;;;;6.00;5.50;;;22.00;89.60;;;;;;5111853;28;20197;-80
2022/04/29 09:52:22;;;;;;;6.00;4.77;;;21.70;90.30;;;;;;5105607;27;20218;-80
2022/04/29 09:54:49;;;;;;;8.67;8.03;;;21.30;88.10;;;;;;5114326;27;20196;-80
2022/04/29 09:57:18;;;;;;;8.50;7.80;;;21.10;88.50;;;;;;5111576;27;20718;-80
2022/04/29 09:59:47;;;;;;;8.60;7.90;;;21.30;88.00;;;;;;5103062;28;20205;-80
2022/04/29 10:02:16;;;;;;;9.53;8.53;;;21.40;90.00;;;;;;5104164;27;20216;-79
2022/04/29 10:04:47;;;;;;;8.43;7.73;;;21.60;85.30;;;;;;5106477;28;20227;-79
2022/04/29 10:07:16;;;;;;;8.20;7.60;;;21.40;84.20;;;;;;5108482;28;20213;-80
2022/04/29 10:09:48;;;;;;;7.90;7.20;;;21.60;89.70;;;;;;5112407;27;20193;-80
2022/04/29 10:12:19;;;;;;;8.13;7.53;;;21.60;88.90;;;;;;5111523;27;20220;-81
2022/04/29 10:14:55;;;;;;;9.03;8.17;;;21.40;85.90;;;;;;5101689;27;20218;-81
2022/04/29 10:23:23;;;;;;;9.20;8.50;;;20.40;86.50;;;;;;5044746;28;20284;-80
2022/04/29 10:25:52;;;;;;;8.30;7.70;;;20.30;88.60;;;;;;5101308;27;20220;-81
2022/04/29 10:28:23;;;;;;;6.10;5.27;;;20.10;87.80;;;;;;5109852;27;20206;-82
2022/04/29 10:31:01;;;;;;;5.40;4.90;;;20.00;88.80;;;;;;5105662;28;20308;-80
2022/04/29 10:33:28;;;;;;;6.03;4.40;;;20.00;87.40;;;;;;5107880;27;20203;-81
2022/04/29 10:35:57;;;;;;;7.67;7.07;;;19.70;87.60;;;;;;5103876;28;20226;-80
2022/04/29 10:38:27;;;;;;;8.10;7.40;;;19.60;87.90;;;;;;5108645;27;20197;-80
2022/04/29 10:41:13;;;;;;;8.53;7.73;;;19.70;89.10;;;;;;5113325;27;20278;-80
2022/04/29 10:43:41;;;;;;;5.77;5.03;;;19.70;86.70;;;;;;5093935;28;20201;-81
2022/04/29 10:46:21;;;;;;;8.50;7.87;;;19.70;90.10;;;;;;5104482;28;20202;-82
2022/04/29 10:49:22;;;;;;;9.30;8.50;;;19.80;88.60;;;;;;5126678;27;20207;-80
2022/04/29 10:52:05;;;;;;;5.47;4.97;;;19.70;86.60;;;;;;5105229;28;20255;-80
2022/04/29 10:54:50;;;;;;;6.47;4.80;;;19.60;86.30;;;;;;5099418;28;20207;-80
2022/04/29 10:57:43;;;;;;;7.10;6.50;;;19.80;87.00;;;;;;5086236;27;20227;-80
2022/04/29 11:00:16;;;;;;;8.87;8.07;;;19.70;89.80;;;;;;5113894;27;20607;-80
2022/04/29 11:02:47;;;;;;;8.50;7.73;;;19.70;86.90;;;;;;5114419;28;20744;-80
2022/04/29 11:05:36;;;;;;;6.47;5.40;;;19.60;88.50;;;;;;5117361;27;20214;-80
2022/04/29 11:08:09;;;;;;;4.53;3.97;;;19.30;88.80;;;;;;5117933;28;20237;-80
2022/04/29 11:10:55;;;;;;;5.93;5.20;;;19.30;87.70;;;;;;5118925;28;20251;-81
2022/04/29 11:13:25;;;;;;;6.73;6.10;;;19.50;88.60;;;;;;5111619;27;20203;-80
2022/04/29 11:16:12;;;;;;;9.73;5.43;;;19.50;87.00;;;;;;5131555;27;20585;-80
2022/04/29 11:19:19;;;;;;;8.10;7.50;;;19.20;86.50;;;;;;5096955;27;20610;-80
2022/04/29 11:24:44;;;;;;;3.60;3.30;;;19.50;90.50;;;;;;5113167;27;20299;-80
2022/04/29 11:27:25;;;;;;;3.93;3.60;;;19.70;89.50;;;;;;5114766;27;20207;-81
2022/04/29 11:29:56;;;;;;;3.87;3.57;;;19.90;89.30;;;;;;5117834;28;20204;-81
2022/04/29 11:32:38;;;;;;;6.37;4.13;;;19.90;88.00;;;;;;5119053;27;20227;-82
2022/04/29 11:35:06;;;;;;;7.53;6.90;;;19.90;88.50;;;;;;5119668;28;20201;-81
2022/04/29 11:37:35;;;;;;;6.77;6.10;;;19.90;88.30;;;;;;5122082;27;20244;-81
2022/04/29 11:40:03;;;;;;;6.13;5.53;;;19.80;88.60;;;;;;5117668;27;20244;-80
2022/04/29 11:42:31;;;;;;;7.87;7.17;;;19.90;90.40;;;;;;5113690;27;20218;-80
2022/04/29 11:45:06;;;;;;;6.67;6.17;;;19.60;89.80;;;;;;5110633;28;20200;-81
2022/04/29 11:47:33;;;;;;;6.63;5.97;;;19.90;89.80;;;;;;5117488;27;20195;-80
2022/04/29 11:50:02;;;;;;;7.50;6.77;;;20.20;90.60;;;;;;5113350;28;20215;-80
2022/04/29 11:52:30;;;;;;;8.87;8.10;;;20.50;89.40;;;;;;5115804;27;20246;-80
2022/04/29 11:54:59;;;;;;;6.03;5.53;;;20.50;88.00;;;;;;5117520;27;20204;-80
2022/04/29 11:57:27;;;;;;;6.40;5.90;;;20.50;90.20;;;;;;5119895;27;20259;-81
2022/04/29 11:59:54;;;;;;;4.20;3.60;;;20.80;90.30;;;;;;5116173;27;20210;-80
2022/04/29 12:02:25;;;;;;;8.20;7.50;;;21.00;90.50;;;;;;5113247;27;20259;-80
2022/04/29 12:04:55;;;;;;;4.77;3.80;;;20.90;86.10;;;;;;5112660;28;20193;-81
2022/04/29 12:07:22;;;;;;;7.13;4.40;;;20.90;87.80;;;;;;5109852;27;20189;-80
2022/04/29 12:09:50;;;;;;;8.53;7.83;;;20.60;85.80;;;;;;5113062;28;20681;-81
2022/04/29 12:12:25;;;;;;;7.50;6.90;;;20.50;88.80;;;;;;5107728;27;20697;-81
2022/04/29 12:14:52;;;;;;;9.90;8.90;;;20.70;90.00;;;;;;5116337;27;20188;-80
2022/04/29 12:17:21;;;;;;;6.60;5.73;;;20.60;86.50;;;;;;5114287;27;20212;-80
2022/04/29 12:19:58;;;;;;;8.17;7.57;;;20.30;86.80;;;;;;5113270;27;20204;-80
2022/04/29 12:22:29;;;;;;;8.40;7.60;;;20.40;89.00;;;;;;5110324;27;20312;-81
2022/04/29 12:24:56;;;;;;;8.60;7.80;;;20.60;89.90;;;;;;5118092;27;20204;-81
2022/04/29 12:27:30;;;;;;;7.57;6.67;;;20.60;88.90;;;;;;5113348;27;20220;-81
2022/04/29 12:35:30;;;;;;;7.53;5.80;;;21.10;90.40;;;;;;5106675;27;20247;-84
2022/04/29 12:37:57;;;;;;;5.50;4.90;;;21.00;86.30;;;;;;5112941;28;20623;-80
2022/04/29 12:40:28;;;;;;;6.60;4.80;;;20.90;88.20;;;;;;5113146;27;20192;-80
2022/04/29 12:43:10;;;;;;;7.40;6.70;;;20.80;88.80;;;;;;5111403;27;20193;-80
2022/04/29 12:45:37;;;;;;;7.60;6.90;;;21.00;91.40;;;;;;5108887;27;20208;-81
2022/04/29 12:48:11;;;;;;;8.03;7.33;;;21.30;90.00;;;;;;5113129;27;20241;-80
2022/04/29 12:50:51;;;;;;;7.57;6.77;;;21.20;88.10;;;;;;5107344;27;20461;-80
2022/04/29 12:53:20;;;;;;;8.03;7.37;;;21.20;90.10;;;;;;5109538;27;20197;-80
2022/04/29 12:55:51;;;;;;;8.90;8.13;;;21.30;90.80;;;;;;5108976;28;20268;-80
2022/04/29 12:58:23;;;;;;;9.10;8.23;;;21.50;89.10;;;;;;5111414;27;20220;-81
2022/04/29 13:01:03;;;;;;;8.13;7.53;;;21.60;86.90;;;;;;5112278;28;20221;-80
2022/04/29 13:03:35;;;;;;;7.63;7.03;;;21.40;89.00;;;;;;5113423;27;20193;-80
2022/04/29 13:06:10;;;;;;;7.73;6.93;;;21.20;87.80;;;;;;5113651;27;20235;-80
2022/04/29 13:08:39;;;;;;;6.93;6.30;;;21.20;89.50;;;;;;5101125;27;20193;-79
2022/04/29 13:11:06;;;;;;;7.30;6.60;;;21.20;89.70;;;;;;5112976;27;20248;-80
2022/04/29 13:13:34;;;;;;;8.13;7.33;;;21.20;90.20;;;;;;5112553;27;20211;-80
2022/04/29 13:16:06;;;;;;;7.50;6.90;;;21.10;89.40;;;;;;5112047;27;20204;-80
2022/04/29 13:18:36;;;;;;;8.60;7.80;;;21.00;90.60;;;;;;5108069;28;20568;-81
2022/04/29 13:21:06;;;;;;;8.47;7.60;;;21.10;90.30;;;;;;5112536;28;20224;-80
2022/04/29 13:23:35;;;;;;;9.83;9.00;;;20.90;90.60;;;;;;5113751;28;20193;-81
2022/04/29 13:26:13;;;;;;;9.47;8.57;;;20.80;89.20;;;;;;5114188;27;20565;-80
2022/04/29 13:28:42;;;;;;;8.43;7.73;;;20.70;91.40;;;;;;5100216;28;20654;-80
2022/04/29 13:31:09;;;;;;;8.20;7.40;;;20.70;91.70;;;;;;5105245;28;20625;-80
2022/04/29 13:33:36;;;;;;;9.77;8.73;;;20.90;92.20;;;;;;5105439;28;20208;-81
2022/04/29 13:36:04;;;;;;;10.30;9.20;;;20.70;88.60;;;;;;5108935;28;20246;-80
2022/04/29 13:38:32;;;;;;;9.27;8.47;;;20.50;86.90;;;;;;5112305;27;20785;-79
2022/04/29 13:41:04;;;;;;;10.07;9.17;;;20.40;88.00;;;;;;5111881;28;20643;-80